Wideman, Arkansas
Current Conditions -  °F | °C
As of 3:53 PM on Wednesday 26 Nov 2014 (Local Time) from KBPK Reporting Station
Scattered Clouds Scattered Clouds  
Wind Chill: 43°   Ceiling: Unl
Heat Index: 47°   Visibility: 10mi
Dew Point: 27°   Wind: 9mph
Humidity: 46%   Direction: 300°WNW
Pressure: 30.05"   Gusts: 24mph
Location:  36.19°N, 92.01°W
Report Text: KBPK 262153Z AUTO 30008G21KT 260V330 10SM SCT080 08/M03 A3005 RMK AO2 SLP181 T00831028
Loading
Personal Weather Stations






























Interactive Weather Map New forecast layout! Learn more

10-Day Weather Forecast

Advertisements
Track Severe Weather on mobile